sensor_id;sensor_type;location;lat;lon;timestamp;pressure;altitude;pressure_sealevel;temperature;humidity
63097;BME280;49185;42.320;23.198;2023-03-01T00:02:18;95203.84;;;5.95;77.63
63097;BME280;49185;42.320;23.198;2023-03-01T00:04:43;95217.84;;;5.82;77.73
63097;BME280;49185;42.320;23.198;2023-03-01T00:07:09;95211.16;;;5.80;77.53
63097;BME280;49185;42.320;23.198;2023-03-01T00:09:36;95207.63;;;6.19;76.21
63097;BME280;49185;42.320;23.198;2023-03-01T00:12:01;95198.34;;;6.03;76.15
63097;BME280;49185;42.320;23.198;2023-03-01T00:14:27;95193.47;;;5.94;77.41
63097;BME280;49185;42.320;23.198;2023-03-01T00:16:52;95191.63;;;5.94;77.95
63097;BME280;49185;42.320;23.198;2023-03-01T00:19:19;95192.03;;;5.91;78.11
63097;BME280;49185;42.320;23.198;2023-03-01T00:21:45;95182.50;;;6.03;78.81
63097;BME280;49185;42.320;23.198;2023-03-01T00:24:11;95175.16;;;6.12;77.14
63097;BME280;49185;42.320;23.198;2023-03-01T00:26:37;95173.22;;;5.81;77.43
63097;BME280;49185;42.320;23.198;2023-03-01T00:29:03;95186.94;;;6.16;77.33
63097;BME280;49185;42.320;23.198;2023-03-01T00:31:30;95183.59;;;6.34;77.43
63097;BME280;49185;42.320;23.198;2023-03-01T00:33:57;95194.91;;;6.03;78.99
63097;BME280;49185;42.320;23.198;2023-03-01T00:36:30;95198.03;;;5.53;82.11
63097;BME280;49185;42.320;23.198;2023-03-01T00:38:56;95200.28;;;5.16;83.05
63097;BME280;49185;42.320;23.198;2023-03-01T00:41:21;95198.84;;;5.33;83.72
63097;BME280;49185;42.320;23.198;2023-03-01T00:43:47;95199.47;;;5.49;82.73
63097;BME280;49185;42.320;23.198;2023-03-01T00:46:18;95195.28;;;6.13;79.60
63097;BME280;49185;42.320;23.198;2023-03-01T00:48:45;95208.22;;;6.21;79.60
63097;BME280;49185;42.320;23.198;2023-03-01T00:51:15;95222.31;;;5.95;80.53
63097;BME280;49185;42.320;23.198;2023-03-01T00:53:41;95225.38;;;5.92;80.73
63097;BME280;49185;42.320;23.198;2023-03-01T00:56:08;95215.63;;;5.86;81.27
63097;BME280;49185;42.320;23.198;2023-03-01T00:58:35;95223.53;;;6.06;80.75
63097;BME280;49185;42.320;23.198;2023-03-01T01:01:07;95218.66;;;6.03;81.41
63097;BME280;49185;42.320;23.198;2023-03-01T01:03:33;95214.31;;;6.29;79.57
63097;BME280;49185;42.320;23.198;2023-03-01T01:05:58;95217.25;;;5.80;80.71
63097;BME280;49185;42.320;23.198;2023-03-01T01:08:23;95209.38;;;5.67;80.01
63097;BME280;49185;42.320;23.198;2023-03-01T01:10:49;95209.28;;;6.14;77.42
63097;BME280;49185;42.320;23.198;2023-03-01T01:13:14;95215.66;;;5.79;77.13
63097;BME280;49185;42.320;23.198;2023-03-01T01:15:40;95201.84;;;6.42;77.20
63097;BME280;49185;42.320;23.198;2023-03-01T01:18:06;95202.41;;;6.06;78.29
63097;BME280;49185;42.320;23.198;2023-03-01T01:20:32;95208.56;;;5.40;79.85
63097;BME280;49185;42.320;23.198;2023-03-01T01:22:57;95213.63;;;5.75;78.81
63097;BME280;49185;42.320;23.198;2023-03-01T01:25:23;95208.53;;;5.66;76.81
63097;BME280;49185;42.320;23.198;2023-03-01T01:27:48;95208.97;;;5.63;76.07
63097;BME280;49185;42.320;23.198;2023-03-01T01:30:14;95213.47;;;5.43;77.22
63097;BME280;49185;42.320;23.198;2023-03-01T01:32:39;95209.59;;;5.39;77.13
63097;BME280;49185;42.320;23.198;2023-03-01T01:35:05;95206.16;;;5.31;77.82
63097;BME280;49185;42.320;23.198;2023-03-01T01:37:30;95207.78;;;5.32;77.97
63097;BME280;49185;42.320;23.198;2023-03-01T01:39:58;95213.25;;;5.18;78.93
63097;BME280;49185;42.320;23.198;2023-03-01T01:42:23;95199.84;;;5.39;77.95
63097;BME280;49185;42.320;23.198;2023-03-01T01:45:24;95200.66;;;5.53;77.37
63097;BME280;49185;42.320;23.198;2023-03-01T01:47:52;95187.91;;;5.23;78.68
63097;BME280;49185;42.320;23.198;2023-03-01T01:50:18;95182.41;;;5.31;78.49
63097;BME280;49185;42.320;23.198;2023-03-01T01:52:44;95174.69;;;5.50;77.83
63097;BME280;49185;42.320;23.198;2023-03-01T01:55:14;95178.56;;;5.34;78.79
63097;BME280;49185;42.320;23.198;2023-03-01T01:57:52;95179.97;;;4.83;83.45
63097;BME280;49185;42.320;23.198;2023-03-01T02:00:24;95176.06;;;4.52;85.98
63097;BME280;49185;42.320;23.198;2023-03-01T02:03:53;95169.78;;;4.47;86.25
63097;BME280;49185;42.320;23.198;2023-03-01T02:05:55;95164.09;;;4.43;87.63
63097;BME280;49185;42.320;23.198;2023-03-01T02:08:25;95168.59;;;4.63;86.44
63097;BME280;49185;42.320;23.198;2023-03-01T02:10:52;95173.22;;;4.54;86.44
63097;BME280;49185;42.320;23.198;2023-03-01T02:13:19;95163.28;;;4.49;87.30
63097;BME280;49185;42.320;23.198;2023-03-01T02:15:45;95163.47;;;4.48;86.91
63097;BME280;49185;42.320;23.198;2023-03-01T02:18:17;95163.91;;;4.45;86.73
63097;BME280;49185;42.320;23.198;2023-03-01T02:20:47;95151.91;;;4.42;86.62
63097;BME280;49185;42.320;23.198;2023-03-01T02:23:16;95151.56;;;4.59;85.40
63097;BME280;49185;42.320;23.198;2023-03-01T02:28:35;95138.56;;;4.50;85.40
63097;BME280;49185;42.320;23.198;2023-03-01T02:31:03;95138.00;;;4.75;84.15
63097;BME280;49185;42.320;23.198;2023-03-01T02:33:31;95140.81;;;4.67;83.97
63097;BME280;49185;42.320;23.198;2023-03-01T02:36:01;95133.31;;;4.64;84.35
63097;BME280;49185;42.320;23.198;2023-03-01T02:38:28;95144.44;;;4.52;85.08
63097;BME280;49185;42.320;23.198;2023-03-01T02:40:54;95134.75;;;4.80;83.48
63097;BME280;49185;42.320;23.198;2023-03-01T02:43:27;95134.91;;;4.51;84.85
63097;BME280;49185;42.320;23.198;2023-03-01T02:45:58;95134.91;;;4.45;85.09
63097;BME280;49185;42.320;23.198;2023-03-01T02:48:23;95133.31;;;4.57;84.53
63097;BME280;49185;42.320;23.198;2023-03-01T02:56:09;95148.94;;;4.72;83.42
63097;BME280;49185;42.320;23.198;2023-03-01T02:58:34;95141.22;;;4.90;82.84
63097;BME280;49185;42.320;23.198;2023-03-01T03:01:00;95157.06;;;4.77;83.70
63097;BME280;49185;42.320;23.198;2023-03-01T03:03:25;95159.09;;;4.75;84.65
63097;BME280;49185;42.320;23.198;2023-03-01T03:05:51;95156.63;;;4.87;83.30
63097;BME280;49185;42.320;23.198;2023-03-01T03:08:16;95160.72;;;4.96;82.13
63097;BME280;49185;42.320;23.198;2023-03-01T03:10:42;95171.22;;;4.76;83.25
63097;BME280;49185;42.320;23.198;2023-03-01T03:13:10;95156.41;;;4.62;83.53
63097;BME280;49185;42.320;23.198;2023-03-01T03:15:36;95163.09;;;4.57;84.09
63097;BME280;49185;42.320;23.198;2023-03-01T03:18:04;95166.72;;;4.43;84.15
63097;BME280;49185;42.320;23.198;2023-03-01T03:20:30;95165.31;;;4.47;83.84
63097;BME280;49185;42.320;23.198;2023-03-01T03:22:56;95165.72;;;4.51;84.30
63097;BME280;49185;42.320;23.198;2023-03-01T03:25:23;95168.13;;;4.46;84.13
63097;BME280;49185;42.320;23.198;2023-03-01T03:27:50;95165.75;;;4.57;83.20
63097;BME280;49185;42.320;23.198;2023-03-01T03:30:18;95165.53;;;4.52;83.85
63097;BME280;49185;42.320;23.198;2023-03-01T03:32:46;95168.34;;;4.44;84.02
63097;BME280;49185;42.320;23.198;2023-03-01T03:35:12;95169.56;;;4.55;83.23
63097;BME280;49185;42.320;23.198;2023-03-01T03:37:41;95171.00;;;4.57;83.10
63097;BME280;49185;42.320;23.198;2023-03-01T03:40:07;95170.84;;;4.66;82.95
63097;BME280;49185;42.320;23.198;2023-03-01T03:42:33;95170.84;;;4.66;82.87
63097;BME280;49185;42.320;23.198;2023-03-01T03:44:58;95173.88;;;4.89;81.96
63097;BME280;49185;42.320;23.198;2023-03-01T03:47:23;95176.94;;;4.73;81.27
63097;BME280;49185;42.320;23.198;2023-03-01T03:49:49;95175.28;;;4.72;81.83
63097;BME280;49185;42.320;23.198;2023-03-01T03:52:14;95164.94;;;4.64;81.58
63097;BME280;49185;42.320;23.198;2023-03-01T03:54:40;95161.09;;;4.80;80.65
63097;BME280;49185;42.320;23.198;2023-03-01T03:59:50;95172.28;;;4.95;80.38
63097;BME280;49185;42.320;23.198;2023-03-01T04:02:15;95172.50;;;5.13;79.49
63097;BME280;49185;42.320;23.198;2023-03-01T04:04:41;95178.97;;;4.84;80.34
63097;BME280;49185;42.320;23.198;2023-03-01T04:07:06;95184.22;;;4.64;81.38
63097;BME280;49185;42.320;23.198;2023-03-01T04:09:32;95163.53;;;4.68;81.21
63097;BME280;49185;42.320;23.198;2023-03-01T04:11:58;95180.81;;;5.10;79.43
63097;BME280;49185;42.320;23.198;2023-03-01T04:14:23;95178.56;;;4.87;80.02
63097;BME280;49185;42.320;23.198;2023-03-01T04:16:48;95179.34;;;4.81;80.31
63097;BME280;49185;42.320;23.198;2023-03-01T04:19:14;95169.63;;;4.75;80.91
63097;BME280;49185;42.320;23.198;2023-03-01T04:21:39;95160.88;;;4.74;80.32
63097;BME280;49185;42.320;23.198;2023-03-01T04:24:05;95161.31;;;4.85;79.81
63097;BME280;49185;42.320;23.198;2023-03-01T04:26:30;95163.13;;;4.78;79.50
63097;BME280;49185;42.320;23.198;2023-03-01T04:28:55;95166.94;;;4.62;80.67
63097;BME280;49185;42.320;23.198;2023-03-01T04:31:21;95162.72;;;4.74;79.72
63097;BME280;49185;42.320;23.198;2023-03-01T04:33:48;95170.03;;;4.92;79.76
63097;BME280;49185;42.320;23.198;2023-03-01T04:36:16;95171.03;;;4.71;79.30
63097;BME280;49185;42.320;23.198;2023-03-01T04:38:41;95164.75;;;4.79;79.99
63097;BME280;49185;42.320;23.198;2023-03-01T04:41:09;95172.69;;;4.85;79.76
63097;BME280;49185;42.320;23.198;2023-03-01T04:43:36;95169.00;;;4.66;79.90
63097;BME280;49185;42.320;23.198;2023-03-01T04:46:03;95177.69;;;4.60;80.92
63097;BME280;49185;42.320;23.198;2023-03-01T04:48:30;95174.50;;;4.91;80.16
63097;BME280;49185;42.320;23.198;2023-03-01T04:50:55;95175.09;;;4.87;79.56
63097;BME280;49185;42.320;23.198;2023-03-01T04:53:20;95176.34;;;4.91;79.57
63097;BME280;49185;42.320;23.198;2023-03-01T04:55:46;95177.53;;;4.75;79.87
63097;BME280;49185;42.320;23.198;2023-03-01T04:58:11;95181.75;;;4.63;80.37
63097;BME280;49185;42.320;23.198;2023-03-01T05:00:37;95174.47;;;4.71;79.82
63097;BME280;49185;42.320;23.198;2023-03-01T05:03:02;95179.94;;;4.63;80.89
63097;BME280;49185;42.320;23.198;2023-03-01T05:05:31;95186.59;;;4.52;81.21
63097;BME280;49185;42.320;23.198;2023-03-01T05:07:59;95188.81;;;4.42;81.83
63097;BME280;49185;42.320;23.198;2023-03-01T05:10:27;95178.09;;;4.50;81.37
63097;BME280;49185;42.320;23.198;2023-03-01T05:12:53;95179.91;;;4.50;81.54
63097;BME280;49185;42.320;23.198;2023-03-01T05:15:19;95187.00;;;4.56;81.19
63097;BME280;49185;42.320;23.198;2023-03-01T05:17:44;95178.69;;;4.52;80.68
63097;BME280;49185;42.320;23.198;2023-03-01T05:20:10;95180.56;;;4.59;80.89
63097;BME280;49185;42.320;23.198;2023-03-01T05:22:36;95175.47;;;4.57;80.81
63097;BME280;49185;42.320;23.198;2023-03-01T05:25:03;95186.88;;;4.84;79.45
63097;BME280;49185;42.320;23.198;2023-03-01T05:27:29;95177.72;;;4.67;80.04
63097;BME280;49185;42.320;23.198;2023-03-01T05:29:55;95174.06;;;4.74;79.14
63097;BME280;49185;42.320;23.198;2023-03-01T05:32:21;95189.69;;;4.76;79.20
63097;BME280;49185;42.320;23.198;2023-03-01T05:34:46;95190.72;;;4.88;78.97
63097;BME280;49185;42.320;23.198;2023-03-01T05:37:12;95197.00;;;4.81;78.79
63097;BME280;49185;42.320;23.198;2023-03-01T05:39:38;95200.44;;;4.81;79.03
63097;BME280;49185;42.320;23.198;2023-03-01T05:42:03;95205.31;;;4.84;78.70
63097;BME280;49185;42.320;23.198;2023-03-01T05:44:29;95208.97;;;4.77;78.98
63097;BME280;49185;42.320;23.198;2023-03-01T05:46:55;95213.84;;;4.86;78.82
63097;BME280;49185;42.320;23.198;2023-03-01T05:49:21;95213.44;;;4.89;78.20
63097;BME280;49185;42.320;23.198;2023-03-01T05:51:52;95212.03;;;5.20;76.66
63097;BME280;49185;42.320;23.198;2023-03-01T05:54:18;95213.25;;;5.11;76.98
63097;BME280;49185;42.320;23.198;2023-03-01T05:56:44;95217.28;;;4.93;77.92
63097;BME280;49185;42.320;23.198;2023-03-01T05:59:10;95219.94;;;5.00;77.72
63097;BME280;49185;42.320;23.198;2023-03-01T06:01:36;95220.16;;;5.05;77.36
63097;BME280;49185;42.320;23.198;2023-03-01T06:04:03;95226.44;;;5.18;76.77
63097;BME280;49185;42.320;23.198;2023-03-01T06:06:29;95231.94;;;5.23;76.63
63097;BME280;49185;42.320;23.198;2023-03-01T06:08:54;95230.69;;;5.25;76.70
63097;BME280;49185;42.320;23.198;2023-03-01T06:11:20;95230.91;;;5.24;75.71
63097;BME280;49185;42.320;23.198;2023-03-01T06:13:46;95238.44;;;5.33;75.71
63097;BME280;49185;42.320;23.198;2023-03-01T06:16:12;95238.03;;;5.37;75.31
63097;BME280;49185;42.320;23.198;2023-03-01T06:18:38;95237.19;;;5.36;75.81
63097;BME280;49185;42.320;23.198;2023-03-01T06:21:05;95238.84;;;5.37;76.05
63097;BME280;49185;42.320;23.198;2023-03-01T06:23:31;95232.94;;;5.42;75.32
63097;BME280;49185;42.320;23.198;2023-03-01T06:25:57;95244.31;;;5.42;75.30
63097;BME280;49185;42.320;23.198;2023-03-01T06:28:22;95245.28;;;5.88;72.91
63097;BME280;49185;42.320;23.198;2023-03-01T06:30:49;95247.72;;;5.96;72.81
63097;BME280;49185;42.320;23.198;2023-03-01T06:33:15;95251.59;;;5.74;73.41
63097;BME280;49185;42.320;23.198;2023-03-01T06:35:40;95246.28;;;5.87;73.44
63097;BME280;49185;42.320;23.198;2023-03-01T06:38:06;95251.38;;;5.95;73.11
63097;BME280;49185;42.320;23.198;2023-03-01T06:40:32;95251.75;;;6.05;72.65
63097;BME280;49185;42.320;23.198;2023-03-01T06:42:58;95262.75;;;5.89;73.76
63097;BME280;49185;42.320;23.198;2023-03-01T06:45:24;95247.13;;;5.81;72.90
63097;BME280;49185;42.320;23.198;2023-03-01T06:47:50;95243.25;;;5.90;72.60
63097;BME280;49185;42.320;23.198;2023-03-01T06:50:16;95248.53;;;5.77;73.48
63097;BME280;49185;42.320;23.198;2023-03-01T06:52:42;95248.75;;;5.82;73.42
63097;BME280;49185;42.320;23.198;2023-03-01T06:55:08;95255.66;;;5.76;73.75
63097;BME280;49185;42.320;23.198;2023-03-01T06:57:33;95252.19;;;5.82;72.67
63097;BME280;49185;42.320;23.198;2023-03-01T06:59:59;95263.97;;;6.00;73.54
63097;BME280;49185;42.320;23.198;2023-03-01T07:02:24;95259.09;;;6.03;72.46
63097;BME280;49185;42.320;23.198;2023-03-01T07:04:51;95256.25;;;6.05;72.95
63097;BME280;49185;42.320;23.198;2023-03-01T07:07:16;95249.75;;;6.07;72.11
63097;BME280;49185;42.320;23.198;2023-03-01T07:09:42;95251.53;;;6.14;71.24
63097;BME280;49185;42.320;23.198;2023-03-01T07:12:07;95248.69;;;6.22;71.32
63097;BME280;49185;42.320;23.198;2023-03-01T07:14:33;95245.06;;;6.03;71.93
63097;BME280;49185;42.320;23.198;2023-03-01T07:16:58;95248.69;;;6.15;71.36
63097;BME280;49185;42.320;23.198;2023-03-01T07:19:24;95241.59;;;6.09;71.84
63097;BME280;49185;42.320;23.198;2023-03-01T07:21:49;95245.53;;;6.52;70.54
63097;BME280;49185;42.320;23.198;2023-03-01T07:24:15;95244.81;;;6.18;70.84
63097;BME280;49185;42.320;23.198;2023-03-01T07:26:40;95254.28;;;6.45;71.03
63097;BME280;49185;42.320;23.198;2023-03-01T07:29:07;95240.88;;;6.47;70.55
63097;BME280;49185;42.320;23.198;2023-03-01T07:31:33;95241.22;;;6.64;69.24
63097;BME280;49185;42.320;23.198;2023-03-01T07:33:58;95247.56;;;6.50;70.61
63097;BME280;49185;42.320;23.198;2023-03-01T07:36:24;95239.88;;;6.41;70.36
63097;BME280;49185;42.320;23.198;2023-03-01T07:38:50;95234.25;;;6.70;69.82
63097;BME280;49185;42.320;23.198;2023-03-01T07:41:16;95232.06;;;6.60;70.30
63097;BME280;49185;42.320;23.198;2023-03-01T07:43:41;95238.09;;;6.74;69.77
63097;BME280;49185;42.320;23.198;2023-03-01T07:46:07;95234.47;;;6.68;70.55
63097;BME280;49185;42.320;23.198;2023-03-01T07:48:33;95242.03;;;6.58;69.45
63097;BME280;49185;42.320;23.198;2023-03-01T07:51:00;95231.06;;;6.61;70.10
63097;BME280;49185;42.320;23.198;2023-03-01T07:53:26;95230.69;;;6.51;70.34
63097;BME280;49185;42.320;23.198;2023-03-01T07:56:14;95228.25;;;6.88;70.30
63097;BME280;49185;42.320;23.198;2023-03-01T07:58:42;95221.53;;;6.85;69.30
63097;BME280;49185;42.320;23.198;2023-03-01T08:01:10;95226.28;;;6.76;69.84
63097;BME280;49185;42.320;23.198;2023-03-01T08:03:36;95230.53;;;6.84;69.09
63097;BME280;49185;42.320;23.198;2023-03-01T08:06:04;95231.34;;;6.78;69.55
63097;BME280;49185;42.320;23.198;2023-03-01T08:08:31;95233.00;;;7.36;67.36
63097;BME280;49185;42.320;23.198;2023-03-01T08:10:58;95226.44;;;7.13;68.01
63097;BME280;49185;42.320;23.198;2023-03-01T08:13:24;95234.09;;;7.28;67.75
63097;BME280;49185;42.320;23.198;2023-03-01T08:15:50;95223.72;;;7.95;66.69
63097;BME280;49185;42.320;23.198;2023-03-01T08:18:16;95228.09;;;7.14;68.12
63097;BME280;49185;42.320;23.198;2023-03-01T08:20:42;95227.78;;;6.97;69.72
63097;BME280;49185;42.320;23.198;2023-03-01T08:23:07;95227.84;;;7.22;68.41
63097;BME280;49185;42.320;23.198;2023-03-01T08:25:33;95230.94;;;7.38;67.80
63097;BME280;49185;42.320;23.198;2023-03-01T08:27:58;95222.63;;;7.09;68.65
63097;BME280;49185;42.320;23.198;2023-03-01T08:30:23;95227.84;;;6.91;69.32
63097;BME280;49185;42.320;23.198;2023-03-01T08:32:49;95224.56;;;6.89;68.82
63097;BME280;49185;42.320;23.198;2023-03-01T08:35:16;95221.06;;;7.27;67.96
63097;BME280;49185;42.320;23.198;2023-03-01T08:37:42;95219.94;;;7.41;67.92
63097;BME280;49185;42.320;23.198;2023-03-01T08:40:09;95231.38;;;7.85;66.73
63097;BME280;49185;42.320;23.198;2023-03-01T08:42:34;95235.06;;;8.21;65.41
63097;BME280;49185;42.320;23.198;2023-03-01T08:45:00;95226.97;;;8.16;64.57
63097;BME280;49185;42.320;23.198;2023-03-01T08:47:25;95224.31;;;8.16;64.80
63097;BME280;49185;42.320;23.198;2023-03-01T08:49:51;95225.53;;;7.58;66.76
63097;BME280;49185;42.320;23.198;2023-03-01T08:52:16;95225.16;;;7.73;67.54
63097;BME280;49185;42.320;23.198;2023-03-01T08:54:42;95222.78;;;7.90;66.13
63097;BME280;49185;42.320;23.198;2023-03-01T08:57:07;95226.69;;;8.06;65.83
63097;BME280;49185;42.320;23.198;2023-03-01T08:59:33;95223.72;;;8.69;63.60
63097;BME280;49185;42.320;23.198;2023-03-01T09:01:58;95212.53;;;9.63;61.74
63097;BME280;49185;42.320;23.198;2023-03-01T09:04:24;95221.38;;;8.91;63.04
63097;BME280;49185;42.320;23.198;2023-03-01T09:06:50;95224.09;;;8.73;64.89
63097;BME280;49185;42.320;23.198;2023-03-01T09:09:17;95221.09;;;8.51;64.38
63097;BME280;49185;42.320;23.198;2023-03-01T09:11:43;95222.75;;;8.94;63.02
63097;BME280;49185;42.320;23.198;2023-03-01T09:14:09;95214.44;;;9.21;63.97
63097;BME280;49185;42.320;23.198;2023-03-01T09:16:34;95215.53;;;9.01;63.47
63097;BME280;49185;42.320;23.198;2023-03-01T09:19:00;95222.09;;;10.12;59.93
63097;BME280;49185;42.320;23.198;2023-03-01T09:21:25;95204.91;;;9.91;59.77
63097;BME280;49185;42.320;23.198;2023-03-01T09:23:51;95214.84;;;9.83;60.84
63097;BME280;49185;42.320;23.198;2023-03-01T09:26:18;95212.88;;;9.55;61.60
63097;BME280;49185;42.320;23.198;2023-03-01T09:28:45;95205.38;;;9.76;61.84
63097;BME280;49185;42.320;23.198;2023-03-01T09:31:12;95205.81;;;10.08;61.31
63097;BME280;49185;42.320;23.198;2023-03-01T09:33:38;95191.16;;;9.94;60.83
63097;BME280;49185;42.320;23.198;2023-03-01T09:36:07;95192.25;;;10.45;58.73
63097;BME280;49185;42.320;23.198;2023-03-01T09:38:33;95192.63;;;10.13;59.80
63097;BME280;49185;42.320;23.198;2023-03-01T09:40:59;95193.41;;;11.40;56.76
63097;BME280;49185;42.320;23.198;2023-03-01T09:43:43;95190.72;;;11.07;57.05
63097;BME280;49185;42.320;23.198;2023-03-01T09:46:13;95190.44;;;9.98;61.10
63097;BME280;49185;42.320;23.198;2023-03-01T09:48:46;95178.34;;;9.67;61.85
63097;BME280;49185;42.320;23.198;2023-03-01T09:51:18;95188.16;;;9.43;61.62
63097;BME280;49185;42.320;23.198;2023-03-01T09:53:44;95179.16;;;9.67;61.11
63097;BME280;49185;42.320;23.198;2023-03-01T10:06:44;95179.63;;;8.38;65.82
63097;BME280;49185;42.320;23.198;2023-03-01T10:09:15;95183.84;;;8.27;66.53
63097;BME280;49185;42.320;23.198;2023-03-01T10:11:54;95178.06;;;8.30;67.01
63097;BME280;49185;42.320;23.198;2023-03-01T10:14:33;95189.56;;;8.43;65.47
63097;BME280;49185;42.320;23.198;2023-03-01T10:17:04;95182.50;;;8.36;65.93
63097;BME280;49185;42.320;23.198;2023-03-01T10:19:37;95189.78;;;8.60;65.14
63097;BME280;49185;42.320;23.198;2023-03-01T10:22:27;95181.88;;;8.71;65.29
63097;BME280;49185;42.320;23.198;2023-03-01T10:24:56;95186.78;;;8.38;66.64
63097;BME280;49185;42.320;23.198;2023-03-01T10:27:26;95179.59;;;8.87;64.61
63097;BME280;49185;42.320;23.198;2023-03-01T10:30:17;95176.72;;;8.58;64.64
63097;BME280;49185;42.320;23.198;2023-03-01T10:32:44;95176.31;;;8.24;65.86
63097;BME280;49185;42.320;23.198;2023-03-01T10:35:25;95189.00;;;8.22;66.85
63097;BME280;49185;42.320;23.198;2023-03-01T10:38:09;95176.34;;;8.73;64.69
63097;BME280;49185;42.320;23.198;2023-03-01T10:40:36;95181.41;;;8.44;65.45
63097;BME280;49185;42.320;23.198;2023-03-01T10:43:14;95185.84;;;8.62;65.76
63097;BME280;49185;42.320;23.198;2023-03-01T10:45:39;95177.38;;;8.72;65.23
63097;BME280;49185;42.320;23.198;2023-03-01T10:50:34;95171.78;;;8.92;63.66
63097;BME280;49185;42.320;23.198;2023-03-01T10:53:02;95172.59;;;9.04;63.79
63097;BME280;49185;42.320;23.198;2023-03-01T10:55:35;95174.78;;;8.53;65.05
63097;BME280;49185;42.320;23.198;2023-03-01T10:58:18;95166.81;;;8.84;64.13
63097;BME280;49185;42.320;23.198;2023-03-01T11:03:35;95172.38;;;9.06;63.38
63097;BME280;49185;42.320;23.198;2023-03-01T11:11:25;95160.66;;;9.25;64.45
63097;BME280;49185;42.320;23.198;2023-03-01T11:13:57;95157.16;;;10.07;61.10
63097;BME280;49185;42.320;23.198;2023-03-01T11:21:37;95140.91;;;9.57;63.08
63097;BME280;49185;42.320;23.198;2023-03-01T11:24:08;95140.47;;;10.81;60.04
63097;BME280;49185;42.320;23.198;2023-03-01T11:26:39;95149.69;;;10.45;59.85
63097;BME280;49185;42.320;23.198;2023-03-01T11:29:13;95136.28;;;10.69;59.82
63097;BME280;49185;42.320;23.198;2023-03-01T11:31:42;95129.03;;;11.66;57.91
63097;BME280;49185;42.320;23.198;2023-03-01T11:34:14;95120.88;;;12.11;55.28
63097;BME280;49185;42.320;23.198;2023-03-01T11:36:56;95121.97;;;11.04;57.50
63097;BME280;49185;42.320;23.198;2023-03-01T11:39:32;95135.47;;;10.85;57.60
63097;BME280;49185;42.320;23.198;2023-03-01T11:44:42;95130.41;;;9.26;62.39
63097;BME280;49185;42.320;23.198;2023-03-01T12:04:52;95108.81;;;9.35;63.50
63097;BME280;49185;42.320;23.198;2023-03-01T12:15:49;95108.56;;;9.01;64.61
63097;BME280;49185;42.320;23.198;2023-03-01T12:31:55;95109.47;;;8.83;65.47
63097;BME280;49185;42.320;23.198;2023-03-01T12:43:04;95123.09;;;8.98;64.63
63097;BME280;49185;42.320;23.198;2023-03-01T12:51:18;95112.72;;;9.20;65.28
63097;BME280;49185;42.320;23.198;2023-03-01T12:53:49;95112.94;;;8.95;65.54
63097;BME280;49185;42.320;23.198;2023-03-01T12:56:19;95111.13;;;9.31;64.24
63097;BME280;49185;42.320;23.198;2023-03-01T13:07:12;95107.28;;;8.91;66.46
63097;BME280;49185;42.320;23.198;2023-03-01T13:10:03;95109.97;;;8.31;68.14
63097;BME280;49185;42.320;23.198;2023-03-01T13:17:48;95102.75;;;8.68;66.79
63097;BME280;49185;42.320;23.198;2023-03-01T13:20:21;95104.03;;;8.17;67.79
63097;BME280;49185;42.320;23.198;2023-03-01T13:22:47;95099.13;;;8.51;68.09
63097;BME280;49185;42.320;23.198;2023-03-01T13:25:19;95093.09;;;8.44;67.63
63097;BME280;49185;42.320;23.198;2023-03-01T13:27:46;95098.88;;;8.04;68.89
63097;BME280;49185;42.320;23.198;2023-03-01T13:33:33;95094.22;;;8.17;69.15
63097;BME280;49185;42.320;23.198;2023-03-01T13:35:59;95094.47;;;8.16;69.93
63097;BME280;49185;42.320;23.198;2023-03-01T13:38:47;95105.53;;;8.13;68.49
63097;BME280;49185;42.320;23.198;2023-03-01T13:46:52;95080.66;;;7.95;68.96
63097;BME280;49185;42.320;23.198;2023-03-01T13:49:21;95086.19;;;7.94;68.65
63097;BME280;49185;42.320;23.198;2023-03-01T13:51:50;95078.47;;;7.92;69.80
63097;BME280;49185;42.320;23.198;2023-03-01T13:54:25;95062.72;;;7.97;68.52
63097;BME280;49185;42.320;23.198;2023-03-01T13:56:52;95080.19;;;8.17;68.54
63097;BME280;49185;42.320;23.198;2023-03-01T13:59:21;95082.38;;;7.90;69.61
63097;BME280;49185;42.320;23.198;2023-03-01T14:01:54;95091.56;;;7.87;69.64
63097;BME280;49185;42.320;23.198;2023-03-01T14:06:50;95082.44;;;7.83;69.24
63097;BME280;49185;42.320;23.198;2023-03-01T14:09:27;95070.38;;;7.50;70.74
63097;BME280;49185;42.320;23.198;2023-03-01T14:12:03;95076.88;;;7.54;70.57
63097;BME280;49185;42.320;23.198;2023-03-01T14:14:54;95080.09;;;7.56;70.60
63097;BME280;49185;42.320;23.198;2023-03-01T14:20:20;95067.69;;;7.38;70.74
63097;BME280;49185;42.320;23.198;2023-03-01T14:22:47;95067.09;;;7.55;70.64
63097;BME280;49185;42.320;23.198;2023-03-01T14:25:23;95064.34;;;7.43;70.87
63097;BME280;49185;42.320;23.198;2023-03-01T14:28:02;95073.25;;;7.49;70.68
63097;BME280;49185;42.320;23.198;2023-03-01T14:30:41;95067.44;;;7.40;71.35
63097;BME280;49185;42.320;23.198;2023-03-01T14:33:20;95067.22;;;7.23;71.58
63097;BME280;49185;42.320;23.198;2023-03-01T14:36:02;95074.94;;;7.25;71.65
63097;BME280;49185;42.320;23.198;2023-03-01T14:38:48;95080.59;;;7.28;71.60
63097;BME280;49185;42.320;23.198;2023-03-01T14:41:18;95077.97;;;7.47;71.17
63097;BME280;49185;42.320;23.198;2023-03-01T14:43:47;95068.00;;;7.23;72.50
63097;BME280;49185;42.320;23.198;2023-03-01T14:46:20;95069.81;;;7.30;71.70
63097;BME280;49185;42.320;23.198;2023-03-01T14:48:49;95072.94;;;7.20;72.35
63097;BME280;49185;42.320;23.198;2023-03-01T14:51:16;95071.59;;;7.11;72.71
63097;BME280;49185;42.320;23.198;2023-03-01T14:53:42;95070.06;;;7.21;72.75
63097;BME280;49185;42.320;23.198;2023-03-01T14:56:14;95064.91;;;6.83;73.08
63097;BME280;49185;42.320;23.198;2023-03-01T14:58:52;95074.91;;;7.06;72.48
63097;BME280;49185;42.320;23.198;2023-03-01T15:01:18;95074.56;;;7.21;72.19
63097;BME280;49185;42.320;23.198;2023-03-01T15:03:46;95078.09;;;6.90;73.23
63097;BME280;49185;42.320;23.198;2023-03-01T15:06:22;95072.53;;;6.98;72.67
63097;BME280;49185;42.320;23.198;2023-03-01T15:08:50;95081.06;;;7.00;72.75